SHT22A EGLL-EGJB
Flight info
| Callsign | SHT22A |
|---|---|
| Flight time | 0h 35m |
| Altitude | 20000 |
| Route | GOGSI N621 SAM N63 LELNA |
| Aircraft | A319/M-SDE2E3FGHIJ1RWXY/S |
Departure
| Time | 2026-05-04 09:11 |
|---|---|
| Airport | London Heathrow Airport (EGLL) |
Arrival
| Time | 2026-05-04 09:46 |
|---|---|
| Airport | Guernsey Airport (EGJB) |
| Time | Latitude | Longitude | Altitude | Speed | Heading |
|---|---|---|---|---|---|
| 2026-05-04 08:27 | 51.46931 | -0.48859 | 90 ft | 0 kts | 360° |
| 2026-05-04 09:01 | 51.46877 | -0.48702 | 86 ft | 0 kts | 270° |
| 2026-05-04 09:01 | 51.46877 | -0.48704 | 86 ft | 0 kts | 270° |
| 2026-05-04 09:01 | 51.46875 | -0.48720 | 89 ft | 4 kts | 259° |
| 2026-05-04 09:01 | 51.46861 | -0.48745 | 87 ft | 7 kts | 212° |
| 2026-05-04 09:02 | 51.46811 | -0.48751 | 87 ft | 4 kts | 178° |
| 2026-05-04 09:02 | 51.46765 | -0.48749 | 87 ft | 9 kts | 178° |
| 2026-05-04 09:02 | 51.46712 | -0.48746 | 86 ft | 1 kts | 178° |
| 2026-05-04 09:02 | 51.46687 | -0.48742 | 86 ft | 6 kts | 170° |
| 2026-05-04 09:03 | 51.46653 | -0.48679 | 87 ft | 10 kts | 101° |
| 2026-05-04 09:03 | 51.46651 | -0.48538 | 86 ft | 15 kts | 89° |
| 2026-05-04 09:03 | 51.46653 | -0.48395 | 86 ft | 16 kts | 89° |
| 2026-05-04 09:03 | 51.46653 | -0.48235 | 86 ft | 18 kts | 91° |
| 2026-05-04 09:04 | 51.46654 | -0.48058 | 86 ft | 23 kts | 89° |
| 2026-05-04 09:04 | 51.46656 | -0.47809 | 86 ft | 28 kts | 89° |
| 2026-05-04 09:04 | 51.46654 | -0.47488 | 86 ft | 34 kts | 90° |
| 2026-05-04 09:04 | 51.46659 | -0.47144 | 90 ft | 40 kts | 88° |
| 2026-05-04 09:05 | 51.46660 | -0.46795 | 89 ft | 46 kts | 90° |
| 2026-05-04 09:05 | 51.46659 | -0.46438 | 88 ft | 11 kts | 90° |
| 2026-05-04 09:05 | 51.46659 | -0.46277 | 86 ft | 16 kts | 90° |
| 2026-05-04 09:05 | 51.46660 | -0.46081 | 90 ft | 16 kts | 89° |
| 2026-05-04 09:06 | 51.46660 | -0.45968 | 86 ft | 14 kts | 89° |
| 2026-05-04 09:07 | 51.46665 | -0.45051 | 87 ft | 11 kts | 89° |
| 2026-05-04 09:08 | 51.46665 | -0.44911 | 87 ft | 16 kts | 90° |
| 2026-05-04 09:08 | 51.46665 | -0.44758 | 87 ft | 21 kts | 90° |
| 2026-05-04 09:08 | 51.46666 | -0.44567 | 87 ft | 26 kts | 89° |
| 2026-05-04 09:08 | 51.46667 | -0.44401 | 86 ft | 14 kts | 89° |
| 2026-05-04 09:09 | 51.46667 | -0.44214 | 86 ft | 20 kts | 89° |
| 2026-05-04 09:09 | 51.46662 | -0.44108 | 86 ft | 3 kts | 112° |
| 2026-05-04 09:09 | 51.46625 | -0.44060 | 86 ft | 10 kts | 161° |
| 2026-05-04 09:09 | 51.46546 | -0.44053 | 89 ft | 7 kts | 183° |
| 2026-05-04 09:10 | 51.46496 | -0.44099 | 89 ft | 11 kts | 242° |
| 2026-05-04 09:10 | 51.46486 | -0.44164 | 90 ft | 0 kts | 255° |
| 2026-05-04 09:10 | 51.46489 | -0.44366 | 87 ft | 52 kts | 271° |
| 2026-05-04 09:10 | 51.46498 | -0.45066 | 92 ft | 105 kts | 270° |
| 2026-05-04 09:11 | 51.46499 | -0.46390 | 94 ft | 157 kts | 271° |
| 2026-05-04 09:11 | 51.46484 | -0.48267 | 649 ft | 164 kts | 271° |
| 2026-05-04 09:11 | 51.46459 | -0.50095 | 1390 ft | 166 kts | 270° |
| 2026-05-04 09:11 | 51.46432 | -0.52050 | 1845 ft | 186 kts | 269° |
| 2026-05-04 09:12 | 51.46404 | -0.54260 | 2246 ft | 211 kts | 269° |
| 2026-05-04 09:12 | 51.46373 | -0.56753 | 2797 ft | 236 kts | 269° |
| 2026-05-04 09:14 | 51.45364 | -0.77491 | 9630 ft | 280 kts | 264° |
| 2026-05-04 09:14 | 51.44895 | -0.80540 | 10329 ft | 291 kts | 245° |
| 2026-05-04 09:14 | 51.43713 | -0.83299 | 10644 ft | 313 kts | 222° |
| 2026-05-04 09:14 | 51.41945 | -0.85453 | 11229 ft | 324 kts | 217° |
| 2026-05-04 09:15 | 51.40134 | -0.87656 | 12002 ft | 329 kts | 216° |
| 2026-05-04 09:15 | 51.38267 | -0.89812 | 12803 ft | 333 kts | 215° |
| 2026-05-04 09:15 | 51.36361 | -0.91968 | 13600 ft | 337 kts | 214° |
| 2026-05-04 09:15 | 51.34432 | -0.94127 | 14314 ft | 341 kts | 214° |
| 2026-05-04 09:17 | 51.18033 | -1.11473 | 19684 ft | 366 kts | 212° |
| 2026-05-04 09:18 | 51.15886 | -1.13668 | 19951 ft | 367 kts | 212° |
| 2026-05-04 09:18 | 51.13737 | -1.15873 | 20018 ft | 368 kts | 212° |
| 2026-05-04 09:18 | 51.11586 | -1.18082 | 20025 ft | 368 kts | 212° |
| 2026-05-04 09:18 | 51.09437 | -1.20292 | 20026 ft | 368 kts | 212° |
| 2026-05-04 09:19 | 51.07284 | -1.22501 | 20026 ft | 368 kts | 212° |
| 2026-05-04 09:19 | 51.05860 | -1.23959 | 20028 ft | 368 kts | 212° |
| 2026-05-04 09:19 | 51.03006 | -1.26879 | 20029 ft | 368 kts | 212° |
| 2026-05-04 09:19 | 51.00823 | -1.29109 | 20029 ft | 368 kts | 212° |
| 2026-05-04 09:20 | 50.98697 | -1.31275 | 20030 ft | 368 kts | 212° |
| 2026-05-04 09:20 | 50.96544 | -1.33464 | 20029 ft | 368 kts | 212° |
| 2026-05-04 09:20 | 50.94320 | -1.35472 | 20029 ft | 368 kts | 206° |
| 2026-05-04 09:20 | 50.92038 | -1.37291 | 20029 ft | 368 kts | 206° |
| 2026-05-04 09:21 | 50.89749 | -1.39116 | 20029 ft | 368 kts | 206° |
| 2026-05-04 09:21 | 50.87463 | -1.40938 | 20040 ft | 368 kts | 206° |
| 2026-05-04 09:21 | 50.85179 | -1.42764 | 20039 ft | 368 kts | 206° |
| 2026-05-04 09:21 | 50.82897 | -1.44589 | 20038 ft | 368 kts | 206° |
| 2026-05-04 09:22 | 50.81350 | -1.45823 | 20037 ft | 368 kts | 206° |
| 2026-05-04 09:22 | 50.79067 | -1.47642 | 20035 ft | 367 kts | 206° |
| 2026-05-04 09:22 | 50.76782 | -1.49454 | 20034 ft | 367 kts | 206° |
| 2026-05-04 09:22 | 50.74499 | -1.51261 | 20034 ft | 367 kts | 206° |
| 2026-05-04 09:23 | 50.72216 | -1.53069 | 20035 ft | 367 kts | 206° |
| 2026-05-04 09:23 | 50.69930 | -1.54877 | 20035 ft | 367 kts | 206° |
| 2026-05-04 09:23 | 50.67647 | -1.56680 | 20036 ft | 367 kts | 206° |
| 2026-05-04 09:23 | 50.65363 | -1.58483 | 20034 ft | 367 kts | 206° |
| 2026-05-04 09:25 | 50.49399 | -1.71052 | 20027 ft | 368 kts | 206° |
| 2026-05-04 09:25 | 50.47113 | -1.72842 | 20028 ft | 368 kts | 206° |
| 2026-05-04 09:26 | 50.44821 | -1.74634 | 20028 ft | 368 kts | 206° |
| 2026-05-04 09:26 | 50.42531 | -1.76424 | 20029 ft | 368 kts | 206° |
| 2026-05-04 09:26 | 50.40243 | -1.78206 | 20035 ft | 368 kts | 206° |
| 2026-05-04 09:26 | 50.37952 | -1.79988 | 20033 ft | 368 kts | 205° |
| 2026-05-04 09:27 | 50.35662 | -1.81770 | 20033 ft | 368 kts | 206° |
| 2026-05-04 09:27 | 50.33372 | -1.83556 | 20032 ft | 368 kts | 206° |
| 2026-05-04 09:27 | 50.31081 | -1.85341 | 20044 ft | 368 kts | 205° |
| 2026-05-04 09:27 | 50.28789 | -1.87123 | 20045 ft | 367 kts | 205° |
| 2026-05-04 09:28 | 50.26502 | -1.88896 | 20044 ft | 367 kts | 205° |
| 2026-05-04 09:28 | 50.24218 | -1.90662 | 20043 ft | 366 kts | 205° |
| 2026-05-04 09:28 | 50.21933 | -1.92425 | 20041 ft | 366 kts | 205° |
| 2026-05-04 09:28 | 50.19650 | -1.94185 | 20040 ft | 366 kts | 205° |
| 2026-05-04 09:29 | 50.17367 | -1.95946 | 20041 ft | 366 kts | 205° |
| 2026-05-04 09:29 | 50.15087 | -1.97704 | 20038 ft | 366 kts | 205° |
| 2026-05-04 09:29 | 50.12808 | -1.99463 | 20034 ft | 366 kts | 205° |
| 2026-05-04 09:29 | 50.10526 | -2.01220 | 20033 ft | 366 kts | 205° |
| 2026-05-04 09:30 | 50.08241 | -2.02977 | 20028 ft | 366 kts | 205° |
| 2026-05-04 09:30 | 50.05960 | -2.04734 | 20027 ft | 366 kts | 205° |
| 2026-05-04 09:30 | 50.03675 | -2.06491 | 20032 ft | 366 kts | 205° |
| 2026-05-04 09:30 | 50.01391 | -2.08242 | 20032 ft | 366 kts | 205° |
| 2026-05-04 09:31 | 49.99152 | -2.10135 | 20023 ft | 366 kts | 212° |
| 2026-05-04 09:31 | 49.97189 | -2.12559 | 19874 ft | 358 kts | 222° |
| 2026-05-04 09:31 | 49.95520 | -2.15399 | 19536 ft | 354 kts | 227° |
| 2026-05-04 09:31 | 49.93904 | -2.18272 | 19125 ft | 352 kts | 226° |
| 2026-05-04 09:32 | 49.92285 | -2.21120 | 18686 ft | 351 kts | 226° |
| 2026-05-04 09:32 | 49.90667 | -2.23946 | 18264 ft | 350 kts | 226° |
| 2026-05-04 09:34 | 49.79668 | -2.43038 | 15149 ft | 329 kts | 225° |
| 2026-05-04 09:34 | 49.78136 | -2.45658 | 14596 ft | 327 kts | 225° |
| 2026-05-04 09:34 | 49.76617 | -2.48253 | 14054 ft | 324 kts | 225° |
| 2026-05-04 09:34 | 49.75109 | -2.50833 | 13482 ft | 322 kts | 225° |
| 2026-05-04 09:35 | 49.73616 | -2.53383 | 12882 ft | 319 kts | 225° |
| 2026-05-04 09:35 | 49.72126 | -2.55924 | 12275 ft | 318 kts | 225° |
| 2026-05-04 09:35 | 49.70645 | -2.58446 | 11701 ft | 316 kts | 225° |
| 2026-05-04 09:35 | 49.69175 | -2.60953 | 11124 ft | 314 kts | 225° |
| 2026-05-04 09:37 | 49.63553 | -2.80254 | 8634 ft | 286 kts | 270° |
| 2026-05-04 09:37 | 49.63625 | -2.83307 | 8256 ft | 284 kts | 270° |
| 2026-05-04 09:38 | 49.63695 | -2.86335 | 7883 ft | 282 kts | 270° |
| 2026-05-04 09:38 | 49.63762 | -2.89344 | 7515 ft | 279 kts | 270° |
| 2026-05-04 09:38 | 49.63825 | -2.92333 | 7260 ft | 276 kts | 270° |
| 2026-05-04 09:38 | 49.63873 | -2.95259 | 7131 ft | 270 kts | 267° |
| 2026-05-04 09:39 | 49.63415 | -2.97991 | 7009 ft | 261 kts | 239° |
| 2026-05-04 09:39 | 49.62194 | -2.99956 | 6881 ft | 253 kts | 209° |
| 2026-05-04 09:39 | 49.60547 | -3.00678 | 6758 ft | 246 kts | 179° |
| 2026-05-04 09:39 | 49.58923 | -3.00036 | 6627 ft | 241 kts | 154° |
| 2026-05-04 09:40 | 49.57453 | -2.98830 | 6505 ft | 237 kts | 151° |
| 2026-05-04 09:40 | 49.56026 | -2.97584 | 6265 ft | 234 kts | 150° |
| 2026-05-04 09:40 | 49.54612 | -2.96342 | 5860 ft | 234 kts | 150° |
| 2026-05-04 09:40 | 49.53197 | -2.95106 | 5485 ft | 233 kts | 150° |
| 2026-05-04 09:41 | 49.51811 | -2.93903 | 5262 ft | 224 kts | 150° |
| 2026-05-04 09:42 | 49.44871 | -2.84569 | 3659 ft | 185 kts | 120° |
| 2026-05-04 09:43 | 49.44214 | -2.82881 | 3437 ft | 183 kts | 120° |
| 2026-05-04 09:43 | 49.43559 | -2.81204 | 3209 ft | 183 kts | 120° |
| 2026-05-04 09:43 | 49.43026 | -2.79415 | 2812 ft | 191 kts | 101° |
| 2026-05-04 09:43 | 49.43008 | -2.77386 | 2488 ft | 191 kts | 87° |
| 2026-05-04 09:44 | 49.43066 | -2.75357 | 2166 ft | 187 kts | 88° |
| 2026-05-04 09:44 | 49.43121 | -2.73418 | 1908 ft | 176 kts | 87° |
| 2026-05-04 09:44 | 49.43173 | -2.71600 | 1674 ft | 165 kts | 87° |
| 2026-05-04 09:46 | 49.43452 | -2.61779 | 392 ft | 122 kts | 85° |
| 2026-05-04 09:46 | 49.43489 | -2.60528 | 308 ft | 100 kts | 86° |
| 2026-05-04 09:46 | 49.43502 | -2.59931 | 321 ft | 19 kts | 91° |
| 2026-05-04 09:47 | 49.43420 | -2.59860 | 325 ft | 16 kts | 178° |
| 2026-05-04 09:47 | 49.43353 | -2.59833 | 324 ft | 7 kts | 129° |
| 2026-05-04 09:49 | 49.43278 | -2.59685 | 328 ft | 6 kts | 178° |
| 2026-05-04 09:49 | 49.43257 | -2.59684 | 328 ft | 0 kts | 178° |
| 2026-05-04 09:49 | 49.43254 | -2.59684 | 328 ft | 0 kts | 178° |